Time;durP1;ratioP1;P1;durP2;ratioP2;P2;SDS_P1;SDS_P2;PMS_P1;PMS_P2;Temp;Humidity;BMP_temperature;BMP_pressure;BME280_temperature;BME280_humidity;BME280_pressure;Samples;Min_cycle;Max_cycle;Signal;HPM_P1;HPM_P2
2021/04/06 00:00:01;;;;;;;4.10;0.70;;;;;;;1.29;100.00;97894.75;5026980;28;20590;-72
2021/04/06 00:02:29;;;;;;;4.43;1.03;;;;;;;1.38;100.00;97885.16;5025638;28;20222;-72
2021/04/06 00:04:59;;;;;;;1.80;0.73;;;;;;;1.40;100.00;97880.56;5024056;28;20228;-73
2021/04/06 00:07:27;;;;;;;1.90;0.57;;;;;;;1.29;100.00;97881.59;5027145;28;20206;-72
2021/04/06 00:09:59;;;;;;;1.03;0.80;;;;;;;1.20;100.00;97882.47;5025125;28;20274;-72
2021/04/06 00:12:27;;;;;;;2.57;0.60;;;;;;;1.24;100.00;97880.38;5027873;28;20609;-72
2021/04/06 00:14:55;;;;;;;3.47;0.83;;;;;;;1.19;100.00;97877.34;5024190;28;20212;-72
2021/04/06 00:17:24;;;;;;;2.80;0.70;;;;;;;1.17;100.00;97872.25;5025600;28;20210;-72
2021/04/06 00:19:54;;;;;;;2.80;1.10;;;;;;;1.14;100.00;97877.81;5029406;28;20202;-72
2021/04/06 00:22:22;;;;;;;3.77;1.07;;;;;;;1.30;100.00;97866.66;5028826;28;20221;-72
2021/04/06 00:24:51;;;;;;;3.43;0.90;;;;;;;1.25;100.00;97871.50;5028486;28;20256;-73
2021/04/06 00:27:19;;;;;;;1.37;0.77;;;;;;;1.29;100.00;97865.00;5030521;28;20210;-72
2021/04/06 00:29:49;;;;;;;4.37;0.90;;;;;;;1.26;100.00;97865.28;5025893;28;20308;-72
2021/04/06 00:32:17;;;;;;;1.47;0.80;;;;;;;1.24;100.00;97870.69;5021098;28;20230;-73
2021/04/06 00:34:44;;;;;;;2.13;1.00;;;;;;;1.33;100.00;97875.06;5027495;28;20202;-72
2021/04/06 00:37:15;;;;;;;6.07;0.70;;;;;;;1.18;100.00;97868.63;5024854;28;20256;-73
2021/04/06 00:39:43;;;;;;;2.57;0.70;;;;;;;1.14;100.00;97869.09;5026150;28;20205;-72
2021/04/06 00:42:12;;;;;;;1.67;1.07;;;;;;;0.88;100.00;97870.72;5023612;28;20226;-73
2021/04/06 00:44:42;;;;;;;1.97;1.03;;;;;;;1.16;100.00;97875.00;5028321;28;20207;-73
2021/04/06 00:47:12;;;;;;;1.63;1.03;;;;;;;1.19;100.00;97875.56;5026385;28;20201;-73
2021/04/06 00:49:41;;;;;;;1.47;0.80;;;;;;;1.08;100.00;97883.63;5027260;28;20207;-73
2021/04/06 00:52:08;;;;;;;2.83;1.50;;;;;;;1.24;100.00;97886.47;5027277;28;20232;-73
2021/04/06 00:54:36;;;;;;;3.30;1.30;;;;;;;1.20;100.00;97885.09;5031606;28;20203;-72
2021/04/06 00:57:04;;;;;;;2.87;1.03;;;;;;;1.04;100.00;97884.91;5033314;28;20209;-73
2021/04/06 00:59:32;;;;;;;3.70;0.90;;;;;;;1.16;100.00;97896.03;5033575;28;20301;-73
2021/04/06 01:02:00;;;;;;;2.37;1.20;;;;;;;1.03;100.00;97891.09;5030933;28;20224;-73
2021/04/06 01:04:29;;;;;;;2.67;1.20;;;;;;;1.04;100.00;97892.78;5030171;28;20219;-71
2021/04/06 01:07:07;;;;;;;3.33;1.10;;;;;;;1.04;100.00;97898.03;5024058;28;20202;-73
2021/04/06 01:09:52;;;;;;;3.60;1.00;;;;;;;0.86;100.00;97898.91;5034217;28;20320;-72
2021/04/06 01:12:21;;;;;;;2.33;1.10;;;;;;;0.98;100.00;97905.66;5031104;28;20226;-72
2021/04/06 01:14:49;;;;;;;3.03;0.93;;;;;;;0.94;100.00;97893.78;5031742;28;20295;-71
2021/04/06 01:17:18;;;;;;;2.97;1.20;;;;;;;0.84;100.00;97893.84;5031459;28;20203;-71
2021/04/06 01:19:46;;;;;;;7.33;1.30;;;;;;;0.92;100.00;97893.13;5030369;28;20202;-71
2021/04/06 01:22:14;;;;;;;5.40;1.23;;;;;;;1.01;100.00;97884.34;5031670;28;20220;-71
2021/04/06 01:24:43;;;;;;;5.57;1.50;;;;;;;0.90;100.00;97879.28;5028618;28;20294;-71
2021/04/06 01:27:13;;;;;;;3.43;1.33;;;;;;;0.95;100.00;97872.63;5026578;28;20206;-73
2021/04/06 01:29:40;;;;;;;5.37;1.33;;;;;;;0.94;100.00;97878.88;5028734;28;20305;-72
2021/04/06 01:32:08;;;;;;;5.93;2.10;;;;;;;0.93;100.00;97879.00;5030707;28;20285;-72
2021/04/06 01:34:35;;;;;;;4.60;1.17;;;;;;;0.91;100.00;97873.88;5032734;28;20202;-72
2021/04/06 01:37:02;;;;;;;5.10;1.20;;;;;;;0.70;100.00;97883.78;5032551;28;20558;-72
2021/04/06 01:39:30;;;;;;;4.20;1.20;;;;;;;0.72;100.00;97873.16;5021000;28;20203;-71
2021/04/06 01:42:00;;;;;;;4.37;1.43;;;;;;;0.71;100.00;97874.94;5022575;28;20234;-72
2021/04/06 01:44:27;;;;;;;5.50;1.30;;;;;;;0.86;100.00;97868.25;5030191;28;20213;-72
2021/04/06 01:46:55;;;;;;;4.87;1.27;;;;;;;0.82;100.00;97861.63;5031157;28;20202;-73
2021/04/06 01:49:22;;;;;;;5.80;1.30;;;;;;;0.81;100.00;97865.22;5033337;28;20753;-72
2021/04/06 01:51:53;;;;;;;2.20;1.10;;;;;;;0.85;100.00;97865.75;5025425;28;20868;-72
2021/04/06 01:54:20;;;;;;;2.80;1.40;;;;;;;0.74;100.00;97855.44;5030435;28;20673;-72
2021/04/06 01:56:52;;;;;;;7.37;1.50;;;;;;;0.58;100.00;97850.81;5028964;28;20249;-72
2021/04/06 01:59:23;;;;;;;1.50;0.87;;;;;;;0.73;100.00;97853.78;5031553;28;20202;-72
2021/04/06 02:01:53;;;;;;;1.20;0.93;;;;;;;0.73;100.00;97844.09;5026636;28;20222;-72
2021/04/06 02:04:21;;;;;;;2.50;1.20;;;;;;;0.83;100.00;97836.19;5030034;28;20209;-72
2021/04/06 02:06:48;;;;;;;3.60;1.40;;;;;;;0.83;100.00;97833.56;5033120;28;20211;-73
2021/04/06 02:09:16;;;;;;;3.80;1.27;;;;;;;0.79;100.00;97845.31;5019114;28;20673;-72
2021/04/06 02:11:45;;;;;;;5.53;1.10;;;;;;;0.68;100.00;97833.22;5025107;28;20234;-72
2021/04/06 02:14:13;;;;;;;1.80;1.10;;;;;;;0.56;100.00;97838.78;5028984;28;20210;-73
2021/04/06 02:16:49;;;;;;;4.67;1.60;;;;;;;0.65;100.00;97840.53;5028462;28;20210;-72
2021/04/06 02:19:27;;;;;;;3.00;1.27;;;;;;;0.73;100.00;97836.22;5028277;28;20201;-72
2021/04/06 02:21:56;;;;;;;4.33;1.53;;;;;;;0.66;100.00;97843.03;5023205;28;20304;-73
2021/04/06 02:24:34;;;;;;;4.27;1.13;;;;;;;0.60;100.00;97848.00;5023852;28;20210;-72
2021/04/06 02:27:03;;;;;;;1.37;1.13;;;;;;;0.55;100.00;97842.38;5024497;28;20207;-73
2021/04/06 02:29:31;;;;;;;4.50;1.20;;;;;;;0.58;100.00;97842.94;5029539;28;20202;-72
2021/04/06 02:31:59;;;;;;;3.70;1.40;;;;;;;0.53;100.00;97844.31;5026372;28;20229;-72
2021/04/06 02:34:39;;;;;;;3.63;1.70;;;;;;;0.55;100.00;97832.69;5031052;28;20202;-72
2021/04/06 02:37:07;;;;;;;5.13;1.23;;;;;;;0.63;100.00;97831.97;5022299;28;20318;-73
2021/04/06 02:39:38;;;;;;;7.03;1.40;;;;;;;0.73;100.00;97828.34;5024172;28;20207;-72
2021/04/06 02:42:28;;;;;;;4.80;1.40;;;;;;;0.65;100.00;97828.25;5025955;28;20656;-73
2021/04/06 02:44:58;;;;;;;3.37;1.23;;;;;;;0.53;100.00;97834.66;5020428;28;20252;-72
2021/04/06 02:47:27;;;;;;;6.97;1.60;;;;;;;0.59;100.00;97830.59;5026088;28;20293;-72
2021/04/06 02:49:54;;;;;;;2.83;1.20;;;;;;;0.41;100.00;97833.16;5025928;28;20237;-72
2021/04/06 02:52:21;;;;;;;7.60;1.60;;;;;;;0.42;100.00;97826.13;5016636;28;20227;-74
2021/04/06 02:54:47;;;;;;;3.83;1.30;;;;;;;0.49;100.00;97814.06;5028612;28;20225;-73
2021/04/06 02:57:25;;;;;;;2.93;1.20;;;;;;;0.58;100.00;97814.06;5028938;28;20571;-73
2021/04/06 02:59:53;;;;;;;4.70;1.60;;;;;;;0.66;100.00;97821.22;5031738;28;20202;-73
2021/04/06 03:02:20;;;;;;;3.73;1.47;;;;;;;0.72;100.00;97824.06;5025307;28;20714;-73
2021/04/06 03:04:49;;;;;;;3.63;1.30;;;;;;;0.69;100.00;97821.75;5017778;28;20210;-73
2021/04/06 03:07:21;;;;;;;4.07;1.47;;;;;;;0.64;100.00;97826.59;5026801;28;20206;-72
2021/04/06 03:09:53;;;;;;;4.50;1.10;;;;;;;0.66;100.00;97823.84;5032041;28;20210;-72
2021/04/06 03:12:20;;;;;;;1.80;1.20;;;;;;;0.63;100.00;97818.84;5024870;28;20227;-72
2021/04/06 03:14:48;;;;;;;3.70;1.10;;;;;;;0.65;100.00;97809.88;5028824;28;20414;-72
2021/04/06 03:17:15;;;;;;;2.30;1.23;;;;;;;0.75;100.00;97804.56;5025779;28;20214;-72
2021/04/06 03:19:44;;;;;;;5.10;1.10;;;;;;;0.62;100.00;97799.63;5020134;28;20309;-72
2021/04/06 03:22:12;;;;;;;2.20;0.83;;;;;;;0.73;100.00;97812.56;5023756;28;20218;-73
2021/04/06 03:24:40;;;;;;;9.57;1.40;;;;;;;0.63;100.00;97809.19;5024697;28;20217;-72
2021/04/06 03:27:08;;;;;;;8.37;1.50;;;;;;;0.67;100.00;97805.28;5020826;28;20650;-73
2021/04/06 03:29:35;;;;;;;3.90;1.20;;;;;;;0.69;100.00;97808.59;5031245;28;20198;-74
2021/04/06 03:32:04;;;;;;;3.10;1.47;;;;;;;0.37;100.00;97810.78;5023935;28;20250;-74
2021/04/06 03:34:32;;;;;;;1.40;1.00;;;;;;;0.93;100.00;97813.34;5025359;28;20215;-72
2021/04/06 03:37:00;;;;;;;7.20;1.50;;;;;;;0.90;100.00;97810.97;5024374;28;20206;-72
2021/04/06 03:39:28;;;;;;;8.57;1.50;;;;;;;0.96;100.00;97808.59;5027795;28;20206;-72
2021/04/06 03:41:55;;;;;;;5.47;1.53;;;;;;;0.95;100.00;97804.34;5021824;28;20230;-72
2021/04/06 03:44:28;;;;;;;4.43;1.47;;;;;;;1.04;100.00;97794.75;5030623;28;20677;-71
2021/04/06 03:47:00;;;;;;;2.70;1.10;;;;;;;1.16;100.00;97797.00;5028212;28;20252;-71
2021/04/06 03:49:28;;;;;;;1.77;0.97;;;;;;;0.95;100.00;97785.94;5032086;28;20206;-74
2021/04/06 03:51:57;;;;;;;5.00;1.70;;;;;;;0.95;100.00;97796.47;5029034;28;20226;-72
2021/04/06 03:54:39;;;;;;;1.83;1.07;;;;;;;0.96;100.00;97800.72;5031259;28;20205;-72
2021/04/06 03:57:22;;;;;;;4.93;1.17;;;;;;;0.89;100.00;97812.81;5023975;28;20228;-72
2021/04/06 03:59:49;;;;;;;3.37;1.50;;;;;;;1.00;100.00;97815.22;5033144;28;20689;-71
2021/04/06 04:02:16;;;;;;;6.50;1.30;;;;;;;1.10;100.00;97809.91;5027185;28;20286;-72
2021/04/06 04:04:43;;;;;;;5.00;1.33;;;;;;;0.88;100.00;97819.00;5024841;28;20215;-72
2021/04/06 04:07:12;;;;;;;3.20;1.27;;;;;;;0.79;100.00;97817.28;5026814;28;20210;-73
2021/04/06 04:09:39;;;;;;;3.03;1.43;;;;;;;0.86;100.00;97820.97;5024811;28;20206;-72
2021/04/06 04:12:07;;;;;;;7.13;1.50;;;;;;;0.83;100.00;97820.44;5024431;28;20706;-72
2021/04/06 04:14:34;;;;;;;5.47;1.77;;;;;;;0.89;100.00;97812.81;5024998;28;20203;-72
2021/04/06 04:17:01;;;;;;;2.07;1.10;;;;;;;1.14;100.00;97816.53;5030482;28;20662;-72
2021/04/06 04:19:28;;;;;;;3.43;1.40;;;;;;;1.11;100.00;97827.31;5024916;28;20209;-72
2021/04/06 04:21:55;;;;;;;4.33;1.40;;;;;;;1.36;100.00;97816.09;5023719;28;20228;-72
2021/04/06 04:24:22;;;;;;;2.90;1.27;;;;;;;1.39;100.00;97826.34;5024838;28;20209;-71
2021/04/06 04:26:49;;;;;;;2.83;1.30;;;;;;;1.42;100.00;97818.97;5025456;28;20225;-72
2021/04/06 04:29:16;;;;;;;4.97;1.17;;;;;;;1.45;100.00;97815.22;5034523;28;20694;-72
2021/04/06 04:31:45;;;;;;;2.93;1.40;;;;;;;1.22;100.00;97814.00;5025777;28;20242;-72
2021/04/06 04:34:12;;;;;;;4.73;1.50;;;;;;;1.34;100.00;97811.03;5023542;28;20199;-71
2021/04/06 04:36:38;;;;;;;7.80;1.57;;;;;;;1.40;100.00;97812.22;5034032;28;20207;-71
2021/04/06 04:39:06;;;;;;;2.23;1.30;;;;;;;1.63;100.00;97814.25;5022243;28;20293;-72
2021/04/06 04:41:33;;;;;;;3.93;1.40;;;;;;;1.65;100.00;97812.31;5030279;28;20287;-72
2021/04/06 04:44:01;;;;;;;4.40;1.37;;;;;;;1.51;100.00;97812.81;5026568;28;20685;-72
2021/04/06 04:46:29;;;;;;;6.40;1.40;;;;;;;1.46;100.00;97806.34;5019838;28;20213;-73
2021/04/06 04:48:56;;;;;;;5.13;1.60;;;;;;;1.34;100.00;97808.41;5034155;28;20210;-73
2021/04/06 04:51:23;;;;;;;2.87;1.77;;;;;;;1.49;100.00;97808.69;5030307;28;20226;-73
2021/04/06 04:53:50;;;;;;;16.40;1.97;;;;;;;1.45;100.00;97802.91;5022330;28;20260;-72
2021/04/06 04:56:17;;;;;;;9.47;1.93;;;;;;;1.17;100.00;97803.13;5023542;28;20214;-73
2021/04/06 04:58:44;;;;;;;4.57;1.73;;;;;;;1.39;100.00;97798.25;5022136;28;20203;-73
2021/04/06 05:01:13;;;;;;;8.50;1.47;;;;;;;1.32;100.00;97796.38;5027192;28;20218;-73
2021/04/06 05:03:39;;;;;;;3.87;1.60;;;;;;;1.29;100.00;97794.88;5034540;28;20275;-72
2021/04/06 05:06:07;;;;;;;2.83;1.77;;;;;;;1.30;100.00;97798.31;5034394;28;20210;-72
2021/04/06 05:08:33;;;;;;;4.27;1.50;;;;;;;1.44;100.00;97800.44;5035512;28;20203;-72
2021/04/06 05:11:00;;;;;;;7.43;1.93;;;;;;;1.44;100.00;97798.63;5031760;28;20226;-71
2021/04/06 05:13:27;;;;;;;5.00;1.60;;;;;;;1.73;100.00;97798.41;5029741;28;20233;-72
2021/04/06 05:15:54;;;;;;;7.33;2.03;;;;;;;1.67;100.00;97799.00;5020468;28;20289;-73
2021/04/06 05:18:22;;;;;;;7.17;1.93;;;;;;;1.59;100.00;97801.56;5027932;28;20198;-73
2021/04/06 05:20:49;;;;;;;6.40;1.50;;;;;;;1.68;100.00;97806.72;5034323;28;20744;-72
2021/04/06 05:23:16;;;;;;;4.20;1.47;;;;;;;1.61;100.00;97805.69;5025921;28;20203;-73
2021/04/06 05:25:44;;;;;;;3.27;1.60;;;;;;;1.37;100.00;97797.56;5026964;28;20280;-73
2021/04/06 05:28:11;;;;;;;6.43;1.63;;;;;;;1.49;100.00;97793.72;5029764;28;20207;-73
2021/04/06 05:30:38;;;;;;;6.63;2.00;;;;;;;1.55;100.00;97794.94;5028408;28;20203;-73
2021/04/06 05:33:05;;;;;;;4.23;1.57;;;;;;;1.70;100.00;97796.91;5027149;28;20223;-73
2021/04/06 05:35:33;;;;;;;4.97;2.10;;;;;;;1.61;100.00;97803.06;5028491;28;20268;-73
2021/04/06 05:38:00;;;;;;;4.97;1.93;;;;;;;1.59;100.00;97791.84;5030132;28;20368;-72
2021/04/06 05:40:27;;;;;;;8.07;1.83;;;;;;;1.66;100.00;97798.19;5020148;28;20198;-73
2021/04/06 05:42:53;;;;;;;7.10;2.03;;;;;;;1.60;100.00;97787.44;5030226;28;20202;-73
2021/04/06 05:45:20;;;;;;;4.50;1.80;;;;;;;1.70;100.00;97775.88;5043202;22;20234;-74
2021/04/06 05:47:51;;;;;;;3.60;1.60;;;;;;;1.73;100.00;97770.28;5008345;28;20723;-73
2021/04/06 05:50:19;;;;;;;6.40;1.73;;;;;;;1.76;100.00;97783.16;5010879;28;20199;-79
2021/04/06 05:52:46;;;;;;;4.07;1.47;;;;;;;1.89;100.00;97783.56;5006985;28;20237;-76
2021/04/06 05:55:13;;;;;;;4.23;1.60;;;;;;;1.86;100.00;97781.25;5013162;28;20226;-75
2021/04/06 05:57:40;;;;;;;8.23;2.07;;;;;;;1.95;100.00;97784.78;5031115;28;20214;-72
2021/04/06 06:00:09;;;;;;;5.70;1.67;;;;;;;2.01;100.00;97778.88;5021907;28;20211;-73
2021/04/06 06:02:36;;;;;;;7.27;1.57;;;;;;;2.11;100.00;97796.25;5021917;28;20199;-74
2021/04/06 06:05:04;;;;;;;8.00;1.87;;;;;;;2.24;100.00;97782.69;5016358;28;20257;-74
2021/04/06 06:07:31;;;;;;;4.07;1.67;;;;;;;2.23;100.00;97800.28;5022453;28;20202;-72
2021/04/06 06:10:25;;;;;;;3.27;1.47;;;;;;;2.14;100.00;97797.75;5015806;28;20230;-74
2021/04/06 06:12:52;;;;;;;5.20;1.60;;;;;;;2.36;100.00;97805.13;5016997;28;20269;-75
2021/04/06 06:15:19;;;;;;;4.60;1.80;;;;;;;2.44;100.00;97800.72;5018984;28;20687;-74
2021/04/06 06:18:01;;;;;;;6.20;1.80;;;;;;;2.51;100.00;97806.22;5015947;28;20659;-75
2021/04/06 06:20:28;;;;;;;5.80;1.50;;;;;;;2.62;100.00;97813.84;5019968;28;20198;-75
2021/04/06 06:22:55;;;;;;;6.57;2.10;;;;;;;2.74;100.00;97812.59;5014113;28;20195;-75
2021/04/06 06:25:22;;;;;;;4.43;1.50;;;;;;;2.86;100.00;97811.34;5013530;28;20227;-77
2021/04/06 06:27:49;;;;;;;2.97;1.63;;;;;;;3.16;100.00;97816.88;5020126;28;20203;-73
2021/04/06 06:30:25;;;;;;;9.27;2.10;;;;;;;3.07;100.00;97822.28;5018055;28;20255;-74
2021/04/06 06:33:16;;;;;;;4.20;1.60;;;;;;;3.13;99.98;97805.84;5015276;28;20226;-74
2021/04/06 06:35:44;;;;;;;3.93;1.40;;;;;;;3.31;99.39;97812.66;5008888;28;20226;-74
2021/04/06 06:38:22;;;;;;;8.17;1.67;;;;;;;2.88;100.00;97799.66;5008865;28;20234;-75
2021/04/06 06:40:52;;;;;;;5.40;1.80;;;;;;;3.29;100.00;97806.72;5013334;28;20248;-76
2021/04/06 06:43:21;;;;;;;4.37;1.57;;;;;;;3.12;100.00;97804.19;5017456;28;20281;-74
2021/04/06 06:45:49;;;;;;;5.03;2.03;;;;;;;3.42;99.92;97812.38;5023402;28;20245;-76
2021/04/06 06:48:29;;;;;;;7.37;2.40;;;;;;;3.37;99.12;97806.75;5016227;28;20209;-74
2021/04/06 06:50:57;;;;;;;8.00;1.50;;;;;;;3.39;99.38;97817.97;5030796;28;20198;-75
2021/04/06 06:53:35;;;;;;;6.80;1.50;;;;;;;3.68;96.96;97813.09;5020810;28;20227;-77
2021/04/06 06:56:03;;;;;;;3.23;1.30;;;;;;;3.73;95.51;97807.31;5017932;28;20344;-76
2021/04/06 06:58:31;;;;;;;2.40;1.20;;;;;;;3.54;96.50;97810.22;5016774;28;20250;-75
2021/04/06 07:00:57;;;;;;;3.83;1.40;;;;;;;3.42;98.76;97806.25;5019718;28;20260;-75
2021/04/06 07:03:24;;;;;;;4.90;2.00;;;;;;;3.65;96.94;97802.03;5021240;28;20263;-76
2021/04/06 07:05:51;;;;;;;6.37;1.60;;;;;;;4.06;94.52;97806.34;5017100;28;20703;-76
2021/04/06 07:08:30;;;;;;;11.80;1.80;;;;;;;4.30;91.96;97796.59;5018508;28;20294;-76
2021/04/06 07:10:59;;;;;;;4.67;1.57;;;;;;;4.17;90.94;97793.59;5009833;28;20204;-75
2021/04/06 07:13:29;;;;;;;4.83;1.80;;;;;;;3.66;93.99;97795.75;5018364;28;20595;-74
2021/04/06 07:15:56;;;;;;;6.10;1.30;;;;;;;3.88;95.09;97797.75;5013555;28;20241;-74
2021/04/06 07:18:26;;;;;;;4.60;1.90;;;;;;;4.11;93.97;97796.91;5016508;28;20691;-75
2021/04/06 07:20:56;;;;;;;8.00;2.17;;;;;;;3.88;95.68;97797.75;5010206;28;20214;-74
2021/04/06 07:23:39;;;;;;;17.77;2.23;;;;;;;3.78;96.02;97797.09;5011775;28;20195;-75
2021/04/06 07:26:07;;;;;;;13.30;2.10;;;;;;;3.83;95.71;97790.34;5012590;28;20792;-75
2021/04/06 07:28:35;;;;;;;8.77;2.00;;;;;;;4.11;93.67;97798.75;5012715;28;20207;-73
2021/04/06 07:31:04;;;;;;;2.90;1.60;;;;;;;4.29;94.05;97799.38;5008878;28;20207;-75
2021/04/06 07:33:31;;;;;;;8.23;2.10;;;;;;;3.99;94.71;97798.25;5013765;28;20699;-74
2021/04/06 07:36:03;;;;;;;4.43;1.30;;;;;;;4.40;91.76;97802.50;5021284;28;20845;-75
2021/04/06 07:38:30;;;;;;;4.83;1.87;;;;;;;4.52;91.48;97806.44;5024081;28;20274;-73
2021/04/06 07:40:58;;;;;;;7.00;1.57;;;;;;;4.45;89.74;97808.13;5017915;28;20210;-74
2021/04/06 07:43:26;;;;;;;6.80;1.87;;;;;;;4.57;87.96;97809.41;5014807;28;20222;-75
2021/04/06 07:45:54;;;;;;;1.63;1.20;;;;;;;4.81;88.36;97801.41;5011270;28;20230;-75
2021/04/06 07:48:51;;;;;;;4.83;1.40;;;;;;;5.23;86.40;97798.47;5012982;28;20660;-74
2021/04/06 07:51:24;;;;;;;5.13;1.40;;;;;;;5.31;87.12;97803.69;4965720;28;20200;-75
2021/04/06 07:53:56;;;;;;;4.47;1.77;;;;;;;5.57;82.95;97807.69;5019253;28;20221;-74
2021/04/06 07:56:45;;;;;;;5.57;1.33;;;;;;;5.14;81.77;97804.78;5022472;28;20245;-75
2021/04/06 07:59:39;;;;;;;3.27;1.50;;;;;;;5.02;84.77;97799.03;5011416;28;20203;-75
2021/04/06 08:02:26;;;;;;;8.90;1.50;;;;;;;5.34;80.34;97808.66;5013933;28;20260;-74
2021/04/06 08:04:55;;;;;;;8.20;1.63;;;;;;;5.28;83.08;97804.88;5012022;28;20284;-74
2021/04/06 08:07:32;;;;;;;4.83;1.90;;;;;;;5.41;81.09;97809.59;5010460;28;20202;-74
2021/04/06 08:10:23;;;;;;;7.07;1.30;;;;;;;5.56;79.73;97808.69;5004196;28;20229;-74
2021/04/06 08:12:51;;;;;;;5.33;1.47;;;;;;;5.86;79.06;97815.81;5009023;28;20262;-76
2021/04/06 08:15:20;;;;;;;7.00;1.33;;;;;;;5.27;82.91;97800.56;5011854;28;20687;-75
2021/04/06 08:17:49;;;;;;;2.70;1.30;;;;;;;5.78;80.70;97807.06;5011129;28;20206;-75
2021/04/06 08:20:51;;;;;;;4.07;1.20;;;;;;;4.95;85.18;97797.25;5011394;28;20207;-74
2021/04/06 08:23:42;;;;;;;8.67;1.93;;;;;;;5.33;84.28;97797.22;5009686;28;20245;-74
2021/04/06 08:26:27;;;;;;;3.43;1.50;;;;;;;5.78;81.88;97807.06;5006554;28;20222;-75
2021/04/06 08:28:54;;;;;;;3.93;1.60;;;;;;;5.96;76.78;97812.91;5010190;28;20329;-75
2021/04/06 08:31:33;;;;;;;6.50;1.80;;;;;;;5.73;79.77;97806.78;5011540;28;20703;-76
2021/04/06 08:34:29;;;;;;;6.53;1.40;;;;;;;5.93;76.79;97806.16;5010174;28;20226;-75
2021/04/06 08:37:09;;;;;;;6.13;1.40;;;;;;;5.96;75.67;97821.69;4962913;28;20696;-75
2021/04/06 08:39:37;;;;;;;6.30;1.70;;;;;;;5.15;82.15;97809.06;5007834;28;20918;-72
2021/04/06 08:42:05;;;;;;;4.63;1.83;;;;;;;4.97;82.08;97816.41;5009921;28;20210;-74
2021/04/06 08:44:34;;;;;;;5.60;1.87;;;;;;;5.06;83.90;97813.56;5007852;28;20204;-75
2021/04/06 08:47:01;;;;;;;5.50;1.50;;;;;;;5.46;80.16;97820.47;5011578;28;20289;-74
2021/04/06 08:49:29;;;;;;;8.83;2.00;;;;;;;5.88;81.74;97807.66;5028002;28;20207;-75
2021/04/06 08:51:58;;;;;;;2.20;1.10;;;;;;;5.67;78.34;97818.88;5031865;28;20199;-74
2021/04/06 08:54:26;;;;;;;30.17;2.83;;;;;;;5.73;77.33;97820.00;5030089;28;20198;-72
2021/04/06 08:56:54;;;;;;;9.33;1.97;;;;;;;5.40;82.38;97818.53;5025846;28;20206;-76
2021/04/06 08:59:24;;;;;;;9.50;1.80;;;;;;;5.38;83.74;97809.97;5029281;28;20204;-74
2021/04/06 09:01:55;;;;;;;4.60;1.60;;;;;;;5.82;78.99;97811.03;5014149;28;20668;-74
2021/04/06 09:04:23;;;;;;;5.50;1.13;;;;;;;6.04;75.96;97818.97;5013482;28;20205;-75
2021/04/06 09:06:51;;;;;;;7.43;1.80;;;;;;;6.11;78.92;97819.94;5010866;28;20204;-74
2021/04/06 09:09:20;;;;;;;7.47;1.17;;;;;;;6.02;76.13;97825.44;5015317;28;20207;-74
2021/04/06 09:11:48;;;;;;;3.73;1.50;;;;;;;6.06;74.59;97830.22;5013881;28;20211;-75
2021/04/06 09:14:16;;;;;;;4.43;1.10;;;;;;;6.40;76.08;97822.66;5016968;28;20234;-75
2021/04/06 09:16:43;;;;;;;2.53;1.33;;;;;;;5.80;75.52;97831.56;5018237;28;20245;-80
2021/04/06 09:19:11;;;;;;;5.67;1.40;;;;;;;6.08;73.97;97830.03;5018640;28;20208;-73
2021/04/06 09:21:40;;;;;;;2.67;1.17;;;;;;;6.03;73.27;97832.38;5020017;28;20265;-74
2021/04/06 09:24:10;;;;;;;3.80;1.10;;;;;;;6.56;73.34;97829.63;5015432;28;20200;-72
2021/04/06 09:26:38;;;;;;;3.57;1.40;;;;;;;5.80;74.10;97832.41;5018392;28;20269;-69
2021/04/06 09:29:11;;;;;;;6.00;1.33;;;;;;;6.23;75.74;97828.25;5013777;28;20229;-69
2021/04/06 09:31:40;;;;;;;6.03;1.60;;;;;;;7.25;74.89;97824.72;5021024;28;20255;-71
2021/04/06 09:34:13;;;;;;;5.80;1.40;;;;;;;6.46;72.49;97839.66;5017469;28;20729;-71
2021/04/06 09:36:41;;;;;;;5.30;1.67;;;;;;;5.49;75.21;97839.47;5013224;28;20310;-71
2021/04/06 09:39:10;;;;;;;5.90;1.17;;;;;;;5.97;72.88;97839.22;5012788;28;20204;-69
2021/04/06 09:41:40;;;;;;;7.97;2.00;;;;;;;6.15;76.46;97825.69;5013118;28;20727;-68
2021/04/06 09:44:10;;;;;;;6.00;1.20;;;;;;;5.65;74.72;97842.06;5005591;28;20298;-70
2021/04/06 09:46:40;;;;;;;5.23;1.00;;;;;;;5.85;76.47;97832.69;5012579;28;20249;-71
2021/04/06 09:49:08;;;;;;;6.43;1.37;;;;;;;6.19;73.50;97827.78;5012814;28;20680;-69
2021/04/06 09:51:37;;;;;;;2.90;1.27;;;;;;;6.14;71.25;97834.66;5013867;28;20212;-71
2021/04/06 09:54:05;;;;;;;2.40;0.90;;;;;;;6.03;70.34;97829.75;5010208;28;20235;-69
2021/04/06 09:56:35;;;;;;;4.53;1.07;;;;;;;6.40;68.01;97835.91;5009717;28;20281;-69
2021/04/06 09:59:04;;;;;;;5.03;1.40;;;;;;;5.95;71.96;97833.28;5013283;28;20232;-67
2021/04/06 10:01:31;;;;;;;2.77;1.00;;;;;;;6.29;69.19;97832.88;5012318;28;20664;-68
2021/04/06 10:03:59;;;;;;;3.70;1.03;;;;;;;6.18;68.50;97828.81;5011978;28;20268;-69
2021/04/06 10:06:38;;;;;;;6.70;1.33;;;;;;;5.39;71.64;97827.47;5011251;28;20258;-69
2021/04/06 10:09:23;;;;;;;4.43;1.33;;;;;;;6.02;75.81;97828.94;5011537;28;20211;-68
2021/04/06 10:11:52;;;;;;;3.87;1.53;;;;;;;6.62;83.58;97808.53;5011979;28;20254;-69
2021/04/06 10:14:20;;;;;;;4.90;1.13;;;;;;;6.48;71.19;97842.94;5012752;28;20279;-68
2021/04/06 10:16:52;;;;;;;5.70;1.53;;;;;;;5.96;71.19;97837.59;5013061;28;20212;-68
2021/04/06 10:19:21;;;;;;;2.93;1.20;;;;;;;6.48;69.39;97840.31;5011941;28;20294;-69
2021/04/06 10:22:06;;;;;;;3.53;1.20;;;;;;;6.98;64.69;97840.47;5013130;28;20216;-72
2021/04/06 10:24:36;;;;;;;4.30;1.63;;;;;;;6.92;76.82;97819.97;5011653;28;20254;-71
2021/04/06 10:27:13;;;;;;;4.13;0.87;;;;;;;6.66;67.05;97820.41;5011267;28;20215;-70
2021/04/06 10:29:40;;;;;;;2.77;0.97;;;;;;;6.77;71.39;97817.34;5010823;28;20216;-71
2021/04/06 10:32:08;;;;;;;4.10;1.43;;;;;;;6.55;64.12;97830.66;5012938;28;20860;-72
2021/04/06 10:34:35;;;;;;;3.33;1.27;;;;;;;6.36;64.76;97831.97;5011198;28;20223;-77
2021/04/06 10:37:05;;;;;;;3.20;1.30;;;;;;;6.84;64.50;97820.88;5012133;28;20294;-71
2021/04/06 10:39:34;;;;;;;3.20;1.10;;;;;;;6.74;67.90;97807.06;5012025;28;20210;-73
2021/04/06 10:42:01;;;;;;;3.50;1.23;;;;;;;7.22;65.83;97813.66;5007267;28;20217;-72
2021/04/06 10:44:29;;;;;;;3.03;1.40;;;;;;;6.54;62.04;97821.06;5012423;28;20231;-73
2021/04/06 10:46:56;;;;;;;5.90;1.63;;;;;;;6.97;66.59;97807.81;5011464;28;20203;-72
2021/04/06 10:49:23;;;;;;;7.80;1.30;;;;;;;6.89;70.94;97796.47;5012308;28;20214;-72
2021/04/06 10:51:51;;;;;;;4.13;1.37;;;;;;;7.00;62.35;97810.09;5011595;28;20260;-73
2021/04/06 10:54:19;;;;;;;7.03;1.30;;;;;;;6.80;61.12;97801.03;5011827;28;20712;-72
2021/04/06 10:56:47;;;;;;;4.67;1.27;;;;;;;7.22;60.12;97806.53;5008990;28;20216;-72
2021/04/06 10:59:15;;;;;;;1.70;0.97;;;;;;;6.34;63.26;97796.06;5012128;28;20209;-72
2021/04/06 11:01:45;;;;;;;2.87;1.17;;;;;;;6.09;63.97;97797.28;5007243;28;20357;-70
2021/04/06 11:04:13;;;;;;;3.87;1.07;;;;;;;6.66;64.77;97791.22;5011646;28;20764;-72
2021/04/06 11:06:42;;;;;;;6.93;1.80;;;;;;;6.97;59.34;97796.38;5011587;28;20218;-72
2021/04/06 11:09:14;;;;;;;5.03;1.20;;;;;;;6.73;59.06;97794.81;5011122;28;20270;-71
2021/04/06 11:11:42;;;;;;;3.43;1.17;;;;;;;6.24;59.70;97793.63;5011302;28;20212;-71
2021/04/06 11:14:11;;;;;;;3.77;1.43;;;;;;;6.13;61.38;97794.06;5008456;28;20267;-71
2021/04/06 11:16:40;;;;;;;5.00;1.23;;;;;;;6.66;62.01;97787.78;5014743;28;20228;-74
2021/04/06 11:19:09;;;;;;;2.73;1.40;;;;;;;6.44;63.00;97783.38;5014240;28;20303;-74
2021/04/06 11:21:38;;;;;;;4.47;1.40;;;;;;;6.16;62.35;97788.44;5012823;28;20207;-68
2021/04/06 11:24:06;;;;;;;2.93;1.63;;;;;;;5.94;57.76;97791.91;5012819;28;20235;-77
2021/04/06 11:26:33;;;;;;;4.67;1.30;;;;;;;6.24;57.02;97798.13;5012701;28;20223;-72
2021/04/06 11:29:00;;;;;;;6.23;1.00;;;;;;;6.27;56.90;97798.59;5012309;28;20208;-72
2021/04/06 11:31:28;;;;;;;6.67;1.20;;;;;;;6.72;56.64;97793.19;5012151;28;20284;-73
2021/04/06 11:33:55;;;;;;;7.57;1.37;;;;;;;6.56;53.96;97803.97;5011856;28;20228;-73
2021/04/06 11:36:23;;;;;;;4.47;1.30;;;;;;;6.47;54.85;97789.13;5011788;28;20345;-73
2021/04/06 11:38:50;;;;;;;2.57;1.00;;;;;;;7.00;54.60;97783.56;5012955;28;20294;-73
2021/04/06 11:41:19;;;;;;;8.07;1.43;;;;;;;6.27;57.26;97776.56;5013396;28;20271;-73
2021/04/06 11:43:47;;;;;;;2.43;1.10;;;;;;;6.26;58.55;97764.31;5011082;28;20662;-74
2021/04/06 11:46:14;;;;;;;4.77;1.43;;;;;;;6.29;58.89;97756.84;5026286;28;20259;-74
2021/04/06 11:48:42;;;;;;;11.80;1.80;;;;;;;6.93;56.41;97764.09;5022229;28;20674;-69